createdAt,value
2023-05-10T00:00:07.156Z,1000.61
2023-05-10T00:00:34.616Z,1000.61
2023-05-10T00:00:55.187Z,1000.61
2023-05-10T00:01:26.387Z,1000.61
2023-05-10T00:01:58.332Z,1000.61
2023-05-10T00:02:30.416Z,1000.61
2023-05-10T00:03:02.425Z,1000.81
2023-05-10T00:03:35.132Z,1000.61
2023-05-10T00:04:06.408Z,1000.61
2023-05-10T00:04:34.791Z,1000.71
2023-05-10T00:04:54.244Z,1000.71
2023-05-10T00:05:27.221Z,1000.71
2023-05-10T00:05:58.253Z,1000.71
2023-05-10T00:06:30.301Z,1000.71
2023-05-10T00:07:02.622Z,1000.91
2023-05-10T00:07:34.249Z,1000.61
2023-05-10T00:08:06.320Z,1000.61
2023-05-10T00:08:34.456Z,1000.61
2023-05-10T00:08:55.170Z,1000.61
2023-05-10T00:09:26.246Z,1000.61
2023-05-10T00:09:58.364Z,1000.61
2023-05-10T00:10:30.463Z,1000.61
2023-05-10T00:11:02.462Z,1000.71
2023-05-10T00:11:34.187Z,1000.71
2023-05-10T00:12:23.190Z,1000.71
2023-05-10T00:12:40.161Z,1000.71
2023-05-10T00:13:10.443Z,1000.71
2023-05-10T00:13:34.505Z,1000.61
2023-05-10T00:13:59.028Z,1000.61
2023-05-10T00:14:30.223Z,1000.61
2023-05-10T00:15:02.906Z,1000.54
2023-05-10T00:15:34.226Z,1000.61
2023-05-10T00:16:06.304Z,1000.61
2023-05-10T00:16:34.576Z,1000.81
2023-05-10T00:16:54.277Z,1000.81
2023-05-10T00:17:27.146Z,1000.81
2023-05-10T00:17:58.311Z,1000.61
2023-05-10T00:18:30.242Z,1000.61
2023-05-10T00:19:02.366Z,1000.81
2023-05-10T00:19:34.804Z,1000.61
2023-05-10T00:20:06.506Z,1000.61
2023-05-10T00:20:34.451Z,1000.54
2023-05-10T00:20:55.270Z,1000.54
2023-05-10T00:21:26.235Z,1000.54
2023-05-10T00:21:58.389Z,1000.81
2023-05-10T00:22:30.289Z,1000.81
2023-05-10T00:23:02.372Z,1000.71
2023-05-10T00:23:34.185Z,1000.61
2023-05-10T00:24:06.315Z,1000.61
2023-05-10T00:24:34.484Z,1000.54
2023-05-10T00:24:54.323Z,1000.54
2023-05-10T00:25:27.224Z,1000.54
2023-05-10T00:25:58.263Z,1000.54
2023-05-10T00:26:30.270Z,1000.54
2023-05-10T00:27:02.520Z,1000.61
2023-05-10T00:27:34.292Z,1000.71
2023-05-10T00:28:06.360Z,1000.71
2023-05-10T00:28:34.489Z,1000.44
2023-05-10T00:28:54.900Z,1000.44
2023-05-10T00:29:26.252Z,1000.44
2023-05-10T00:29:58.255Z,1000.61
2023-05-10T00:30:30.784Z,1000.61
2023-05-10T00:31:02.457Z,1000.61
2023-05-10T00:31:34.243Z,1000.54
2023-05-10T00:32:06.393Z,1000.54
2023-05-10T00:32:35.238Z,1000.71
2023-05-10T00:32:54.658Z,1000.71
2023-05-10T00:33:26.253Z,1000.71
2023-05-10T00:33:59.038Z,1000.71
2023-05-10T00:34:30.551Z,1000.71
2023-05-10T00:35:02.747Z,1000.54
2023-05-10T00:35:34.251Z,1000.71
2023-05-10T00:36:06.328Z,1000.71
2023-05-10T00:36:34.464Z,1000.61
2023-05-10T00:36:54.256Z,1000.61
2023-05-10T00:37:26.957Z,1000.61
2023-05-10T00:37:58.231Z,1000.54
2023-05-10T00:38:30.227Z,1000.54
2023-05-10T00:39:02.411Z,1000.71
2023-05-10T00:39:34.498Z,1000.44
2023-05-10T00:40:06.510Z,1000.44
2023-05-10T00:40:34.794Z,1000.54
2023-05-10T00:40:55.169Z,1000.54
2023-05-10T00:41:26.278Z,1000.54
2023-05-10T00:41:58.259Z,1000.44
2023-05-10T00:42:30.242Z,1000.44
2023-05-10T00:43:18.969Z,1000.71
2023-05-10T00:43:50.349Z,1000.71
2023-05-10T00:44:23.311Z,1000.71
2023-05-10T00:44:40.270Z,1000.61
2023-05-10T00:45:10.903Z,1000.61
2023-05-10T00:45:34.437Z,1000.61
2023-05-10T00:45:59.210Z,1000.61
2023-05-10T00:46:30.345Z,1000.61
2023-05-10T00:47:02.383Z,1000.81
2023-05-10T00:47:34.216Z,1000.61
2023-05-10T00:48:06.261Z,1000.61
2023-05-10T00:48:34.585Z,1000.61
2023-05-10T00:48:54.243Z,1000.61
2023-05-10T00:49:27.017Z,1000.61
2023-05-10T00:49:58.158Z,1000.61
2023-05-10T00:50:30.341Z,1000.61
2023-05-10T00:51:02.285Z,1000.54
2023-05-10T00:51:34.169Z,1000.61
2023-05-10T00:52:06.200Z,1000.61
2023-05-10T00:52:34.488Z,1000.71
2023-05-10T00:52:55.009Z,1000.71
2023-05-10T00:53:26.181Z,1000.71
2023-05-10T00:53:58.151Z,1000.44
2023-05-10T00:54:30.148Z,1000.44
2023-05-10T00:55:02.808Z,1000.54
2023-05-10T00:55:34.185Z,1000.44
2023-05-10T00:56:06.285Z,1000.44
2023-05-10T00:56:34.434Z,1000.61
2023-05-10T00:56:54.277Z,1000.61
2023-05-10T00:57:26.996Z,1000.61
2023-05-10T00:57:58.341Z,1000.71
2023-05-10T00:58:30.144Z,1000.71
2023-05-10T00:59:02.419Z,1000.44
2023-05-10T00:59:34.753Z,1000.81
2023-05-10T01:00:06.836Z,1000.81
2023-05-10T01:00:35.098Z,1000.61
2023-05-10T01:00:55.193Z,1000.61
2023-05-10T01:01:26.159Z,1000.61
2023-05-10T01:01:58.863Z,1000.61
2023-05-10T01:02:30.205Z,1000.61
2023-05-10T01:03:02.602Z,1000.61
2023-05-10T01:03:34.207Z,1000.61
2023-05-10T01:04:06.283Z,1000.61
2023-05-10T01:04:34.442Z,1000.61
2023-05-10T01:04:54.259Z,1000.61
2023-05-10T01:05:27.253Z,1000.61
2023-05-10T01:05:58.194Z,1000.61
2023-05-10T01:06:30.183Z,1000.61
2023-05-10T01:07:02.378Z,1000.54
2023-05-10T01:07:34.284Z,1000.71
2023-05-10T01:08:06.205Z,1000.71
2023-05-10T01:08:34.716Z,1000.71
2023-05-10T01:08:54.946Z,1000.71
2023-05-10T01:09:26.197Z,1000.71
2023-05-10T01:09:58.124Z,1000.71
2023-05-10T01:10:30.467Z,1000.71
2023-05-10T01:11:02.423Z,1000.54
2023-05-10T01:11:34.583Z,1000.71
2023-05-10T01:12:06.327Z,1000.71
2023-05-10T01:12:34.916Z,1000.81
2023-05-10T01:12:54.263Z,1000.81
2023-05-10T01:13:26.924Z,1000.81
2023-05-10T01:13:58.272Z,1000.61
2023-05-10T01:14:30.168Z,1000.61
2023-05-10T01:15:02.869Z,1000.71
2023-05-10T01:15:34.410Z,1000.61
2023-05-10T01:16:06.465Z,1000.61
2023-05-10T01:16:34.510Z,1000.81
2023-05-10T01:16:54.996Z,1000.81
2023-05-10T01:17:26.189Z,1000.81
2023-05-10T01:17:58.213Z,1000.81
2023-05-10T01:18:30.169Z,1000.81
2023-05-10T01:19:02.527Z,1000.71
2023-05-10T01:19:34.164Z,1000.71
2023-05-10T01:20:06.736Z,1000.71
2023-05-10T01:20:34.415Z,1000.71
2023-05-10T01:20:54.321Z,1000.71
2023-05-10T01:21:26.941Z,1000.71
2023-05-10T01:22:01.176Z,1000.71
2023-05-10T01:22:30.213Z,1000.71
2023-05-10T01:23:02.414Z,1000.71
2023-05-10T01:23:34.198Z,1000.61
2023-05-10T01:24:06.260Z,1000.61
2023-05-10T01:24:34.475Z,1000.61
2023-05-10T01:24:54.945Z,1000.61
2023-05-10T01:25:26.326Z,1000.61
2023-05-10T01:25:58.193Z,1000.61
2023-05-10T01:26:30.176Z,1000.61
2023-05-10T01:27:02.405Z,1000.61
2023-05-10T01:27:34.142Z,1000.91
2023-05-10T01:28:06.295Z,1000.91
2023-05-10T01:28:34.980Z,1000.61
2023-05-10T01:28:54.189Z,1000.61
2023-05-10T01:29:26.850Z,1000.61
2023-05-10T01:30:13.558Z,1000.61
2023-05-10T01:30:30.572Z,1000.61
2023-05-10T01:31:02.518Z,1000.71
2023-05-10T01:31:34.195Z,1000.44
2023-05-10T01:32:06.384Z,1000.44
2023-05-10T01:32:34.415Z,1000.61
2023-05-10T01:32:54.980Z,1000.61
2023-05-10T01:33:26.396Z,1000.61
2023-05-10T01:33:58.167Z,1000.71
2023-05-10T01:34:30.216Z,1000.71
2023-05-10T01:35:02.775Z,1000.71
2023-05-10T01:35:34.135Z,1000.61
2023-05-10T01:36:06.292Z,1000.61
2023-05-10T01:36:34.580Z,1000.71
2023-05-10T01:36:54.122Z,1000.71
2023-05-10T01:37:26.959Z,1000.71
2023-05-10T01:37:58.111Z,1000.81
2023-05-10T01:38:30.190Z,1000.81
2023-05-10T01:39:02.296Z,1000.54
2023-05-10T01:39:34.244Z,1000.61
2023-05-10T01:40:06.343Z,1000.61
2023-05-10T01:40:34.420Z,1000.81
2023-05-10T01:40:55.158Z,1000.81
2023-05-10T01:41:26.186Z,1000.81
2023-05-10T01:41:59.071Z,1000.81
2023-05-10T01:42:30.182Z,1000.81
2023-05-10T01:43:02.454Z,1000.61
2023-05-10T01:43:34.132Z,1000.71
2023-05-10T01:44:06.357Z,1000.71
2023-05-10T01:44:34.414Z,1000.71
2023-05-10T01:44:54.265Z,1000.71
2023-05-10T01:45:27.086Z,1000.71
2023-05-10T01:45:58.151Z,1000.54
2023-05-10T01:46:30.186Z,1000.54
2023-05-10T01:47:02.451Z,1000.71
2023-05-10T01:47:34.205Z,1000.54
2023-05-10T01:48:06.501Z,1000.54
2023-05-10T01:48:34.773Z,1000.81
2023-05-10T01:48:54.836Z,1000.81
2023-05-10T01:49:26.122Z,1000.81
2023-05-10T01:49:58.117Z,1000.71
2023-05-10T01:50:30.335Z,1000.71
2023-05-10T01:51:02.393Z,1000.81
2023-05-10T01:51:34.126Z,1000.54
2023-05-10T01:52:06.180Z,1000.54
2023-05-10T01:52:34.481Z,1000.81
2023-05-10T01:52:54.237Z,1000.81
2023-05-10T01:53:27.068Z,1000.81
2023-05-10T01:53:58.135Z,1000.71
2023-05-10T01:54:30.266Z,1000.71
2023-05-10T01:55:02.559Z,1000.71
2023-05-10T01:55:34.472Z,1000.61
2023-05-10T01:56:06.132Z,1000.61
2023-05-10T01:56:34.617Z,1000.61
2023-05-10T01:56:54.906Z,1000.61
2023-05-10T01:57:26.161Z,1000.61
2023-05-10T01:57:58.183Z,1000.71
2023-05-10T01:58:30.374Z,1000.71
2023-05-10T01:59:02.331Z,1000.61
2023-05-10T01:59:34.298Z,1000.61
2023-05-10T02:00:07.390Z,1000.61
2023-05-10T02:00:34.404Z,1000.54
2023-05-10T02:00:54.433Z,1000.54
2023-05-10T02:01:27.022Z,1000.54
2023-05-10T02:01:58.184Z,1000.81
2023-05-10T02:02:30.251Z,1000.81
2023-05-10T02:03:02.320Z,1000.71
2023-05-10T02:03:34.122Z,1000.61
2023-05-10T02:04:06.278Z,1000.61
2023-05-10T02:04:34.460Z,1000.81
2023-05-10T02:04:54.861Z,1000.81
2023-05-10T02:05:26.405Z,1000.81
2023-05-10T02:05:58.129Z,1000.54
2023-05-10T02:06:30.260Z,1000.54
2023-05-10T02:07:02.263Z,1000.71
2023-05-10T02:07:34.127Z,1000.81
2023-05-10T02:08:06.133Z,1000.81
2023-05-10T02:08:34.610Z,1000.71
2023-05-10T02:08:54.146Z,1000.71
2023-05-10T02:09:26.883Z,1000.71
2023-05-10T02:09:58.122Z,1000.81
2023-05-10T02:10:30.310Z,1000.81
2023-05-10T02:11:02.460Z,1000.81
2023-05-10T02:11:34.202Z,1000.54
2023-05-10T02:12:06.171Z,1000.54
2023-05-10T02:12:34.386Z,1000.81
2023-05-10T02:12:54.848Z,1000.81
2023-05-10T02:13:26.131Z,1000.81
2023-05-10T02:13:58.137Z,1000.71
2023-05-10T02:14:30.120Z,1000.71
2023-05-10T02:15:02.826Z,1000.71
2023-05-10T02:15:34.099Z,1000.81
2023-05-10T02:16:06.231Z,1000.81
2023-05-10T02:16:34.479Z,1000.61
2023-05-10T02:16:54.200Z,1000.61
2023-05-10T02:17:26.888Z,1000.61
2023-05-10T02:17:58.152Z,1000.81
2023-05-10T02:18:30.181Z,1000.81
2023-05-10T02:19:02.472Z,1000.61
2023-05-10T02:19:34.214Z,1000.71
2023-05-10T02:20:06.404Z,1000.71
2023-05-10T02:20:34.399Z,1000.71
2023-05-10T02:20:55.160Z,1000.71
2023-05-10T02:21:26.125Z,1000.71
2023-05-10T02:21:58.080Z,1000.91
2023-05-10T02:22:30.119Z,1000.91
2023-05-10T02:23:02.257Z,1001.01
2023-05-10T02:23:34.540Z,1001.22
2023-05-10T02:24:06.124Z,1001.22
2023-05-10T02:24:34.388Z,1001.01
2023-05-10T02:24:54.239Z,1001.01
2023-05-10T02:25:27.116Z,1001.01
2023-05-10T02:25:58.105Z,1001.01
2023-05-10T02:26:30.137Z,1001.01
2023-05-10T02:27:02.311Z,1000.91
2023-05-10T02:27:34.162Z,1000.81
2023-05-10T02:28:06.178Z,1000.81
2023-05-10T02:28:34.460Z,1000.71
2023-05-10T02:28:54.929Z,1000.71
2023-05-10T02:29:26.190Z,1000.71
2023-05-10T02:29:58.153Z,1001.12
2023-05-10T02:30:30.512Z,1001.12
2023-05-10T02:31:02.382Z,1001.01
2023-05-10T02:31:34.629Z,1001.12
2023-05-10T02:32:06.369Z,1001.12
2023-05-10T02:32:34.416Z,1000.91
2023-05-10T02:32:54.200Z,1000.91
2023-05-10T02:33:26.939Z,1000.91
2023-05-10T02:33:58.267Z,1000.91
2023-05-10T02:34:30.084Z,1000.91
2023-05-10T02:35:02.671Z,1000.81
2023-05-10T02:35:34.082Z,1001.01
2023-05-10T02:36:06.188Z,1001.01
2023-05-10T02:36:34.475Z,1000.91
2023-05-10T02:36:54.877Z,1000.91
2023-05-10T02:37:26.097Z,1000.91
2023-05-10T02:37:58.153Z,1001.01
2023-05-10T02:38:30.174Z,1001.01
2023-05-10T02:39:02.264Z,1001.01
2023-05-10T02:39:34.115Z,1000.91
2023-05-10T02:40:06.263Z,1000.91
2023-05-10T02:40:34.422Z,1001.01
2023-05-10T02:40:54.246Z,1001.01
2023-05-10T02:41:27.002Z,1001.01
2023-05-10T02:41:58.118Z,1001.01
2023-05-10T02:42:30.134Z,1001.01
2023-05-10T02:43:02.431Z,1000.91
2023-05-10T02:43:34.142Z,1000.91
2023-05-10T02:44:06.415Z,1000.91
2023-05-10T02:44:34.453Z,1001.32
2023-05-10T02:44:54.931Z,1001.32
2023-05-10T02:45:26.337Z,1001.32
2023-05-10T02:45:58.110Z,1001.01
2023-05-10T02:46:30.541Z,1001.01
2023-05-10T02:47:02.430Z,1001.01
2023-05-10T02:47:34.156Z,1001.01
2023-05-10T02:48:06.184Z,1001.01
2023-05-10T02:48:34.474Z,1001.12
2023-05-10T02:48:54.191Z,1001.12
2023-05-10T02:49:26.886Z,1001.12
2023-05-10T02:49:58.100Z,1001.12
2023-05-10T02:50:30.273Z,1001.12
2023-05-10T02:51:02.292Z,1000.91
2023-05-10T02:51:34.146Z,1001.12
2023-05-10T02:52:06.151Z,1001.12
2023-05-10T02:52:34.427Z,1001.12
2023-05-10T02:52:54.891Z,1001.12
2023-05-10T02:53:26.219Z,1001.12
2023-05-10T02:53:58.109Z,1001.22
2023-05-10T02:54:30.102Z,1001.22
2023-05-10T02:55:02.841Z,1001.01
2023-05-10T02:55:34.112Z,1000.91
2023-05-10T02:56:06.188Z,1000.91
2023-05-10T02:56:34.390Z,1001.01
2023-05-10T02:56:54.076Z,1001.01
2023-05-10T02:57:26.867Z,1001.01
2023-05-10T02:57:58.092Z,1000.91
2023-05-10T02:58:30.164Z,1000.91
2023-05-10T02:59:02.366Z,1001.12
2023-05-10T02:59:34.564Z,1000.81
2023-05-10T03:00:06.585Z,1000.81
2023-05-10T03:00:34.410Z,1000.91
2023-05-10T03:00:55.119Z,1000.91
2023-05-10T03:01:26.185Z,1000.91
2023-05-10T03:01:58.115Z,1000.91
2023-05-10T03:02:30.332Z,1000.91
2023-05-10T03:03:02.436Z,1001.01
2023-05-10T03:03:34.116Z,1000.91
2023-05-10T03:04:06.228Z,1000.91
2023-05-10T03:04:34.534Z,1001.12
2023-05-10T03:04:54.277Z,1001.12
2023-05-10T03:05:27.167Z,1001.12
2023-05-10T03:05:58.179Z,1001.01
2023-05-10T03:06:30.104Z,1001.01
2023-05-10T03:07:02.368Z,1001.01
2023-05-10T03:07:35.021Z,1001.12
2023-05-10T03:08:06.210Z,1001.12
2023-05-10T03:08:34.382Z,1001.01
2023-05-10T03:08:54.913Z,1001.01
2023-05-10T03:09:26.097Z,1001.01
2023-05-10T03:09:58.130Z,1001.12
2023-05-10T03:10:30.226Z,1001.12
2023-05-10T03:11:02.170Z,1001.01
2023-05-10T03:11:34.112Z,1001.22
2023-05-10T03:12:06.192Z,1001.22
2023-05-10T03:12:34.402Z,1001.01
2023-05-10T03:12:54.281Z,1001.01
2023-05-10T03:13:26.963Z,1001.01
2023-05-10T03:13:58.136Z,1001.01
2023-05-10T03:14:30.124Z,1001.01
2023-05-10T03:15:03.197Z,1001.01
2023-05-10T03:15:34.170Z,1001.01
2023-05-10T03:16:06.276Z,1001.01
2023-05-10T03:16:34.528Z,1000.91
2023-05-10T03:16:54.889Z,1000.91
2023-05-10T03:17:26.210Z,1000.91
2023-05-10T03:17:58.260Z,1000.91
2023-05-10T03:18:30.141Z,1000.91
2023-05-10T03:19:02.239Z,1001.12
2023-05-10T03:19:34.101Z,1001.01
2023-05-10T03:20:06.326Z,1001.01
2023-05-10T03:20:34.966Z,1000.91
2023-05-10T03:20:54.275Z,1000.91
2023-05-10T03:21:26.857Z,1000.91
2023-05-10T03:21:58.073Z,1000.91
2023-05-10T03:22:30.067Z,1000.91
2023-05-10T03:23:02.333Z,1001.01
2023-05-10T03:23:34.132Z,1000.81
2023-05-10T03:24:06.200Z,1000.81
2023-05-10T03:24:34.469Z,1000.91
2023-05-10T03:24:55.014Z,1000.91
2023-05-10T03:25:26.313Z,1000.91
2023-05-10T03:25:58.273Z,1001.01
2023-05-10T03:26:30.112Z,1001.01
2023-05-10T03:27:02.552Z,1000.91
2023-05-10T03:27:34.139Z,1001.01
2023-05-10T03:28:06.136Z,1001.01
2023-05-10T03:28:34.424Z,1001.12
2023-05-10T03:28:54.183Z,1001.12
2023-05-10T03:29:26.921Z,1001.12
2023-05-10T03:29:58.074Z,1001.01
2023-05-10T03:30:30.343Z,1001.01
2023-05-10T03:31:02.270Z,1001.01
2023-05-10T03:31:34.266Z,1001.01
2023-05-10T03:32:06.111Z,1001.01
2023-05-10T03:32:35.048Z,1001.12
2023-05-10T03:32:55.002Z,1001.12
2023-05-10T03:33:26.081Z,1001.12
2023-05-10T03:33:58.117Z,1001.01
2023-05-10T03:34:30.060Z,1001.01
2023-05-10T03:35:02.584Z,1001.12
2023-05-10T03:35:34.072Z,1001.01
2023-05-10T03:36:06.146Z,1001.01
2023-05-10T03:36:34.625Z,1001.12
2023-05-10T03:36:54.090Z,1001.12
2023-05-10T03:37:26.974Z,1001.12
2023-05-10T03:37:58.143Z,1000.91
2023-05-10T03:38:30.723Z,1000.91
2023-05-10T03:39:02.378Z,1001.12
2023-05-10T03:39:34.087Z,1001.12
2023-05-10T03:40:06.353Z,1001.12
2023-05-10T03:40:34.607Z,1001.22
2023-05-10T03:40:55.062Z,1001.22
2023-05-10T03:41:26.414Z,1001.22
2023-05-10T03:41:58.941Z,1001.01
2023-05-10T03:42:30.110Z,1001.01
2023-05-10T03:43:03.678Z,1001.12
2023-05-10T03:43:34.356Z,1001.22
2023-05-10T03:44:06.267Z,1001.22
2023-05-10T03:44:34.650Z,1000.91
2023-05-10T03:44:54.058Z,1000.91
2023-05-10T03:45:27.227Z,1000.91
2023-05-10T03:45:58.125Z,1001.12
2023-05-10T03:46:30.158Z,1001.12
2023-05-10T03:47:02.468Z,1001.12
2023-05-10T03:47:34.174Z,1001.01
2023-05-10T03:48:06.240Z,1001.01
2023-05-10T03:48:34.457Z,1001.01
2023-05-10T03:48:54.822Z,1001.01
2023-05-10T03:49:26.128Z,1001.01
2023-05-10T03:49:58.070Z,1001.12
2023-05-10T03:50:30.258Z,1001.12
2023-05-10T03:51:02.319Z,1001.12
2023-05-10T03:51:34.274Z,1000.91
2023-05-10T03:52:06.154Z,1000.91
2023-05-10T03:52:34.468Z,1001.22
2023-05-10T03:52:54.753Z,1001.22
2023-05-10T03:53:26.880Z,1001.22
2023-05-10T03:53:58.185Z,1001.42
2023-05-10T03:54:30.833Z,1001.42
2023-05-10T03:55:03.156Z,1001.22
2023-05-10T03:55:34.783Z,1001.32
2023-05-10T03:56:06.193Z,1001.32
2023-05-10T03:56:35.414Z,1001.22
2023-05-10T03:56:54.937Z,1001.22
2023-05-10T03:57:26.144Z,1001.22
2023-05-10T03:57:59.527Z,1001.12
2023-05-10T03:58:30.154Z,1001.12
2023-05-10T03:59:02.677Z,1001.22
2023-05-10T03:59:34.134Z,1001.22
2023-05-10T04:00:06.732Z,1001.22
2023-05-10T04:00:34.503Z,1001.12
2023-05-10T04:00:54.359Z,1001.12
2023-05-10T04:01:27.347Z,1001.12
2023-05-10T04:01:58.181Z,1001.42
2023-05-10T04:02:30.441Z,1001.42
2023-05-10T04:03:02.436Z,1001.22
2023-05-10T04:03:34.534Z,1001.12
2023-05-10T04:04:06.297Z,1001.12
2023-05-10T04:04:34.461Z,1001.32
2023-05-10T04:04:54.926Z,1001.32
2023-05-10T04:05:26.618Z,1001.32
2023-05-10T04:05:58.158Z,1001.32
2023-05-10T04:06:30.140Z,1001.32
2023-05-10T04:07:02.612Z,1001.12
2023-05-10T04:07:34.115Z,1001.01
2023-05-10T04:08:06.286Z,1001.01
2023-05-10T04:08:34.486Z,1001.32
2023-05-10T04:08:56.030Z,1001.32
2023-05-10T04:09:26.991Z,1001.32
2023-05-10T04:09:58.194Z,1001.32
2023-05-10T04:10:30.347Z,1001.32
2023-05-10T04:11:02.987Z,1001.32
2023-05-10T04:11:34.110Z,1001.12
2023-05-10T04:12:07.056Z,1001.12
2023-05-10T04:12:34.588Z,1001.01
2023-05-10T04:12:54.832Z,1001.01
2023-05-10T04:13:26.178Z,1001.01
2023-05-10T04:13:58.079Z,1001.12
2023-05-10T04:14:30.111Z,1001.12
2023-05-10T04:15:03.330Z,1001.42
2023-05-10T04:15:34.143Z,1001.12
2023-05-10T04:16:06.199Z,1001.12
2023-05-10T04:16:34.523Z,1001.32
2023-05-10T04:16:54.140Z,1001.32
2023-05-10T04:17:27.105Z,1001.32
2023-05-10T04:17:58.235Z,1001.12
2023-05-10T04:18:30.378Z,1001.12
2023-05-10T04:19:02.686Z,1001.32
2023-05-10T04:19:34.234Z,1001.12
2023-05-10T04:20:06.291Z,1001.12
2023-05-10T04:20:34.855Z,1001.32
2023-05-10T04:20:55.762Z,1001.32
2023-05-10T04:21:26.297Z,1001.32
2023-05-10T04:21:58.271Z,1001.42
2023-05-10T04:22:30.139Z,1001.42
2023-05-10T04:23:02.744Z,1001.01
2023-05-10T04:23:34.224Z,1001.01
2023-05-10T04:24:06.285Z,1001.01
2023-05-10T04:24:36.765Z,1001.42
2023-05-10T04:24:54.584Z,1001.42
2023-05-10T04:25:27.282Z,1001.42
2023-05-10T04:26:01.145Z,1001.12
2023-05-10T04:26:30.272Z,1001.12
2023-05-10T04:27:02.596Z,1001.32
2023-05-10T04:27:34.223Z,1001.32
2023-05-10T04:28:06.355Z,1001.32
2023-05-10T04:28:34.582Z,1001.42
2023-05-10T04:28:55.140Z,1001.42
2023-05-10T04:29:27.900Z,1001.42
2023-05-10T04:29:58.232Z,1001.22
2023-05-10T04:30:30.389Z,1001.22
2023-05-10T04:31:02.362Z,1001.22
2023-05-10T04:31:34.623Z,1001.22
2023-05-10T04:32:06.491Z,1001.22
2023-05-10T04:32:34.624Z,1001.22
2023-05-10T04:32:54.806Z,1001.22
2023-05-10T04:33:27.214Z,1001.22
2023-05-10T04:33:58.214Z,1001.12
2023-05-10T04:34:30.258Z,1001.12
2023-05-10T04:35:03.320Z,1001.32
2023-05-10T04:35:34.648Z,1001.42
2023-05-10T04:36:06.253Z,1001.42
2023-05-10T04:36:34.595Z,1001.22
2023-05-10T04:36:58.022Z,1001.22
2023-05-10T04:37:26.208Z,1001.22
2023-05-10T04:37:58.425Z,1001.12
2023-05-10T04:38:32.111Z,1001.12
2023-05-10T04:39:02.564Z,1001.22
2023-05-10T04:39:34.741Z,1001.42
2023-05-10T04:40:06.730Z,1001.42
2023-05-10T04:40:34.575Z,1001.42
2023-05-10T04:40:55.152Z,1001.42
2023-05-10T04:41:26.282Z,1001.42
2023-05-10T04:41:58.213Z,1001.22
2023-05-10T04:42:30.280Z,1001.22
2023-05-10T04:43:03.331Z,1001.22
2023-05-10T04:43:34.193Z,1001.22
2023-05-10T04:44:06.530Z,1001.22
2023-05-10T04:44:35.139Z,1001.42
2023-05-10T04:44:54.258Z,1001.42
2023-05-10T04:45:27.401Z,1001.42
2023-05-10T04:45:58.453Z,1001.12
2023-05-10T04:46:32.078Z,1001.12
2023-05-10T04:47:02.441Z,1001.32
2023-05-10T04:47:34.895Z,1001.52
2023-05-10T04:48:06.421Z,1001.52
2023-05-10T04:48:35.251Z,1001.22
2023-05-10T04:48:55.093Z,1001.22
2023-05-10T04:49:26.225Z,1001.22
2023-05-10T04:49:59.014Z,1001.42
2023-05-10T04:50:30.422Z,1001.42
2023-05-10T04:51:02.410Z,1001.32
2023-05-10T04:51:34.660Z,1001.22
2023-05-10T04:52:06.328Z,1001.22
2023-05-10T04:52:34.712Z,1001.32
2023-05-10T04:52:54.221Z,1001.32
2023-05-10T04:53:27.014Z,1001.32
2023-05-10T04:54:06.227Z,1001.42
2023-05-10T04:54:30.191Z,1001.42
2023-05-10T04:55:02.954Z,1001.22
2023-05-10T04:55:34.635Z,1001.22
2023-05-10T04:56:06.231Z,1001.22
2023-05-10T04:56:34.844Z,1001.42
2023-05-10T04:56:55.077Z,1001.42
2023-05-10T04:57:26.210Z,1001.42
2023-05-10T04:57:58.282Z,1001.12
2023-05-10T04:58:30.253Z,1001.12
2023-05-10T04:59:02.528Z,1001.32
2023-05-10T04:59:34.191Z,1001.22
2023-05-10T05:00:07.473Z,1001.22
2023-05-10T05:00:34.787Z,1001.22
2023-05-10T05:00:54.308Z,1001.22
2023-05-10T05:01:27.064Z,1001.22
2023-05-10T05:01:58.431Z,1001.01
2023-05-10T05:02:30.589Z,1001.01
2023-05-10T05:03:02.962Z,1001.12
2023-05-10T05:03:34.271Z,1001.22
2023-05-10T05:04:06.350Z,1001.22
2023-05-10T05:04:34.629Z,1001.32
2023-05-10T05:04:55.143Z,1001.32
2023-05-10T05:05:26.401Z,1001.32
2023-05-10T05:05:58.419Z,1001.32
2023-05-10T05:06:30.312Z,1001.32
2023-05-10T05:07:02.916Z,1001.32
2023-05-10T05:07:34.261Z,1001.22
2023-05-10T05:08:06.250Z,1001.22
2023-05-10T05:08:34.562Z,1001.22
2023-05-10T05:08:54.194Z,1001.22
2023-05-10T05:09:27.009Z,1001.22
2023-05-10T05:09:58.181Z,1001.32
2023-05-10T05:10:31.257Z,1001.32
2023-05-10T05:11:02.429Z,1001.32
2023-05-10T05:11:34.968Z,1001.32
2023-05-10T05:12:06.285Z,1001.32
2023-05-10T05:12:34.577Z,1001.32
2023-05-10T05:12:55.103Z,1001.32
2023-05-10T05:13:26.256Z,1001.32
2023-05-10T05:13:58.222Z,1001.42
2023-05-10T05:14:30.166Z,1001.42
2023-05-10T05:15:03.577Z,1001.22
2023-05-10T05:15:34.186Z,1001.32
2023-05-10T05:16:06.534Z,1001.32
2023-05-10T05:16:34.931Z,1001.42
2023-05-10T05:16:54.141Z,1001.42
2023-05-10T05:17:26.909Z,1001.42
2023-05-10T05:17:58.161Z,1001.42
2023-05-10T05:18:30.223Z,1001.42
2023-05-10T05:19:02.378Z,1001.52
2023-05-10T05:19:34.246Z,1001.52
2023-05-10T05:20:06.419Z,1001.52
2023-05-10T05:20:34.734Z,1001.42
2023-05-10T05:20:55.176Z,1001.42
2023-05-10T05:21:26.220Z,1001.42
2023-05-10T05:21:58.200Z,1001.52
2023-05-10T05:22:30.559Z,1001.52
2023-05-10T05:23:02.400Z,1001.62
2023-05-10T05:23:34.245Z,1001.42
2023-05-10T05:24:06.233Z,1001.42
2023-05-10T05:24:34.623Z,1001.62
2023-05-10T05:24:54.211Z,1001.62
2023-05-10T05:25:27.157Z,1001.62
2023-05-10T05:25:58.301Z,1001.73
2023-05-10T05:26:30.285Z,1001.73
2023-05-10T05:27:02.384Z,1001.42
2023-05-10T05:27:34.538Z,1001.52
2023-05-10T05:28:06.281Z,1001.52
2023-05-10T05:28:35.259Z,1001.52
2023-05-10T05:28:57.645Z,1001.52
2023-05-10T05:29:26.566Z,1001.52
2023-05-10T05:29:59.840Z,1001.62
2023-05-10T05:30:33.073Z,1001.62
2023-05-10T05:31:02.781Z,1001.73
2023-05-10T05:31:38.379Z,1001.62
2023-05-10T05:32:08.569Z,1001.62
2023-05-10T05:32:34.663Z,1001.93
2023-05-10T05:32:56.818Z,1001.93
2023-05-10T05:33:26.493Z,1001.93
2023-05-10T05:33:58.209Z,1001.52
2023-05-10T05:34:30.256Z,1001.52
2023-05-10T05:35:03.736Z,1001.62
2023-05-10T05:35:34.224Z,1001.62
2023-05-10T05:36:06.667Z,1001.62
2023-05-10T05:36:37.012Z,1001.52
2023-05-10T05:36:54.317Z,1001.52
2023-05-10T05:37:27.214Z,1001.52
2023-05-10T05:38:00.351Z,1001.62
2023-05-10T05:38:30.278Z,1001.62
2023-05-10T05:39:02.314Z,1001.42
2023-05-10T05:39:36.400Z,1001.62
2023-05-10T05:40:07.296Z,1001.62
2023-05-10T05:40:35.495Z,1001.73
2023-05-10T05:40:54.727Z,1001.73
2023-05-10T05:41:26.204Z,1001.73
2023-05-10T05:41:58.533Z,1001.73
2023-05-10T05:42:32.514Z,1001.73
2023-05-10T05:43:02.521Z,1001.73
2023-05-10T05:43:37.409Z,1001.52
2023-05-10T05:44:06.408Z,1001.52
2023-05-10T05:44:34.727Z,1001.83
2023-05-10T05:44:54.377Z,1001.83
2023-05-10T05:45:27.696Z,1001.83
2023-05-10T05:45:58.378Z,1001.83
2023-05-10T05:46:30.348Z,1001.83
2023-05-10T05:47:03.176Z,1001.62
2023-05-10T05:47:34.336Z,1001.83
2023-05-10T05:48:06.501Z,1001.83
2023-05-10T05:48:34.834Z,1001.93
2023-05-10T05:48:55.102Z,1001.93
2023-05-10T05:49:26.813Z,1001.93
2023-05-10T05:49:59.962Z,1001.83
2023-05-10T05:50:31.063Z,1001.83
2023-05-10T05:51:04.631Z,1001.83
2023-05-10T05:51:34.473Z,1001.83
2023-05-10T05:52:06.470Z,1001.83
2023-05-10T05:52:34.650Z,1001.83
2023-05-10T05:52:54.266Z,1001.83
2023-05-10T05:53:27.522Z,1001.83
2023-05-10T05:53:58.710Z,1001.62
2023-05-10T05:54:30.328Z,1001.62
2023-05-10T05:55:02.982Z,1001.62
2023-05-10T05:55:34.869Z,1001.83
2023-05-10T05:56:06.577Z,1001.83
2023-05-10T05:56:35.181Z,1001.52
2023-05-10T05:56:56.060Z,1001.52
2023-05-10T05:57:26.311Z,1001.52
2023-05-10T05:57:58.425Z,1001.83
2023-05-10T05:58:30.364Z,1001.83
2023-05-10T05:59:02.540Z,1001.73
2023-05-10T05:59:35.424Z,1001.83
2023-05-10T06:00:07.579Z,1001.83
2023-05-10T06:00:34.708Z,1001.42
2023-05-10T06:00:54.460Z,1001.42
2023-05-10T06:01:27.035Z,1001.42
2023-05-10T06:01:58.378Z,1001.93
2023-05-10T06:02:31.262Z,1001.93